createdAt,value
2018-09-09T00:00:30.406Z,13.37
2018-09-09T00:02:58.693Z,13.29
2018-09-09T00:05:26.896Z,13.35
2018-09-09T00:07:55.081Z,13.36
2018-09-09T00:10:23.246Z,13.36
2018-09-09T00:12:51.481Z,13.50
2018-09-09T00:15:19.662Z,13.49
2018-09-09T00:17:47.885Z,13.49
2018-09-09T00:20:16.062Z,13.44
2018-09-09T00:22:44.292Z,13.55
2018-09-09T00:25:12.421Z,13.40
2018-09-09T00:27:40.604Z,13.34
2018-09-09T00:30:08.781Z,13.38
2018-09-09T00:32:36.965Z,13.39
2018-09-09T00:35:05.233Z,13.25
2018-09-09T00:37:33.433Z,13.27
2018-09-09T00:40:01.605Z,13.19
2018-09-09T00:42:29.797Z,13.23
2018-09-09T00:44:58.061Z,13.22
2018-09-09T00:47:26.264Z,13.31
2018-09-09T00:49:59.805Z,13.23
2018-09-09T00:52:33.350Z,13.20
2018-09-09T00:55:01.525Z,13.17
2018-09-09T00:57:29.733Z,13.23
2018-09-09T00:59:57.933Z,13.33
2018-09-09T01:02:26.125Z,13.24
2018-09-09T01:04:54.308Z,13.28
2018-09-09T01:07:22.488Z,13.23
2018-09-09T01:09:50.708Z,13.27
2018-09-09T01:12:18.973Z,13.22
2018-09-09T01:14:47.493Z,13.19
2018-09-09T01:17:15.746Z,13.12
2018-09-09T01:19:43.918Z,13.26
2018-09-09T01:22:12.134Z,13.16
2018-09-09T01:24:40.325Z,13.08
2018-09-09T01:27:08.628Z,13.10
2018-09-09T01:29:36.889Z,13.17
2018-09-09T01:32:05.105Z,13.18
2018-09-09T01:34:33.293Z,13.05
2018-09-09T01:37:01.561Z,13.06
2018-09-09T01:39:30.560Z,12.97
2018-09-09T01:41:58.752Z,13.01
2018-09-09T01:44:27.029Z,12.97
2018-09-09T01:46:55.241Z,13.01
2018-09-09T01:49:23.413Z,13.12
2018-09-09T01:51:51.594Z,13.01
2018-09-09T01:54:19.771Z,13.00
2018-09-09T01:56:47.975Z,12.91
2018-09-09T01:59:16.149Z,12.76
2018-09-09T02:01:44.350Z,12.82
2018-09-09T02:04:12.537Z,12.83
2018-09-09T02:06:40.714Z,12.87
2018-09-09T02:09:08.889Z,12.77
2018-09-09T02:11:37.085Z,12.79
2018-09-09T02:14:05.270Z,12.90
2018-09-09T02:16:33.558Z,12.82
2018-09-09T02:19:01.734Z,12.80
2018-09-09T02:21:29.906Z,12.83
2018-09-09T02:23:58.122Z,12.71
2018-09-09T02:26:26.409Z,12.75
2018-09-09T02:28:54.601Z,12.83
2018-09-09T02:31:22.885Z,12.79
2018-09-09T02:33:51.290Z,12.67
2018-09-09T02:36:19.449Z,12.59
2018-09-09T02:38:47.654Z,12.72
2018-09-09T02:41:15.929Z,12.78
2018-09-09T02:43:44.222Z,12.73
2018-09-09T02:46:12.320Z,12.63
2018-09-09T02:48:40.497Z,12.64
2018-09-09T02:51:08.677Z,12.61
2018-09-09T02:53:36.857Z,12.52
2018-09-09T02:56:10.721Z,12.54
2018-09-09T02:58:38.884Z,12.62
2018-09-09T03:01:07.450Z,12.53
2018-09-09T03:03:35.638Z,12.60
2018-09-09T03:06:03.818Z,12.52
2018-09-09T03:08:32.004Z,12.52
2018-09-09T03:11:05.481Z,12.57
2018-09-09T03:13:33.946Z,12.60
2018-09-09T03:16:02.128Z,12.49
2018-09-09T03:18:30.418Z,12.56
2018-09-09T03:20:58.590Z,12.55
2018-09-09T03:23:26.789Z,12.59
2018-09-09T03:25:54.970Z,12.52
2018-09-09T03:28:23.605Z,12.49
2018-09-09T03:30:51.739Z,12.46
2018-09-09T03:33:19.917Z,12.39
2018-09-09T03:35:48.158Z,12.43
2018-09-09T03:38:16.669Z,12.44
2018-09-09T03:40:44.838Z,12.55
2018-09-09T03:43:13.039Z,12.65
2018-09-09T03:45:41.225Z,12.54
2018-09-09T03:48:09.409Z,12.48
2018-09-09T03:50:37.589Z,12.44
2018-09-09T03:53:05.823Z,12.37
2018-09-09T03:55:34.049Z,12.35
2018-09-09T03:58:02.505Z,12.41
2018-09-09T04:00:30.894Z,12.40
2018-09-09T04:02:59.085Z,12.36
2018-09-09T04:05:27.258Z,12.31
2018-09-09T04:07:55.509Z,12.27
2018-09-09T04:10:23.761Z,12.25
2018-09-09T04:12:51.995Z,12.22
2018-09-09T04:15:20.165Z,12.24
2018-09-09T04:17:48.425Z,12.29
2018-09-09T04:20:16.598Z,12.26
2018-09-09T04:22:44.810Z,12.22
2018-09-09T04:25:13.006Z,12.13
2018-09-09T04:27:41.186Z,12.13
2018-09-09T04:30:09.461Z,12.14
2018-09-09T04:32:37.656Z,12.16
2018-09-09T04:35:05.846Z,12.21
2018-09-09T04:37:34.126Z,12.25
2018-09-09T04:40:07.675Z,12.28
2018-09-09T04:42:35.877Z,12.29
2018-09-09T04:45:04.113Z,12.22
2018-09-09T04:47:32.402Z,12.33
2018-09-09T04:50:00.659Z,12.29
2018-09-09T04:52:28.873Z,12.34
2018-09-09T04:54:57.157Z,12.29
2018-09-09T04:57:25.453Z,12.36
2018-09-09T04:59:53.633Z,12.39
2018-09-09T05:02:21.826Z,12.46
2018-09-09T05:04:50.102Z,12.42
2018-09-09T05:07:18.297Z,12.52
2018-09-09T05:09:46.581Z,12.42
2018-09-09T05:12:14.801Z,12.40
2018-09-09T05:14:43.057Z,12.44
2018-09-09T05:17:11.254Z,12.41
2018-09-09T05:19:39.445Z,12.41
2018-09-09T05:22:07.633Z,12.53
2018-09-09T05:24:35.817Z,12.63
2018-09-09T05:27:04.101Z,12.55
2018-09-09T05:29:32.273Z,12.60
2018-09-09T05:32:00.457Z,12.68
2018-09-09T05:34:28.657Z,12.73
2018-09-09T05:36:56.838Z,12.73
2018-09-09T05:39:25.018Z,12.80
2018-09-09T05:41:53.230Z,12.77
2018-09-09T05:44:21.416Z,12.78
2018-09-09T05:46:49.693Z,12.66
2018-09-09T05:49:17.865Z,12.69
2018-09-09T05:51:46.049Z,12.77
2018-09-09T05:54:14.224Z,12.83
2018-09-09T05:56:42.413Z,12.89
2018-09-09T05:59:10.591Z,12.90
2018-09-09T06:01:38.774Z,12.90
2018-09-09T06:04:07.018Z,12.80
2018-09-09T06:06:35.220Z,12.78
2018-09-09T06:09:03.606Z,12.88
2018-09-09T06:11:31.791Z,12.92
2018-09-09T06:14:00.041Z,13.02
2018-09-09T06:16:28.225Z,13.15
2018-09-09T06:18:56.422Z,13.24
2018-09-09T06:21:24.601Z,13.27
2018-09-09T06:23:52.779Z,13.44
2018-09-09T06:26:20.961Z,13.43
2018-09-09T06:28:49.149Z,13.55
2018-09-09T06:31:17.431Z,13.69
2018-09-09T06:33:45.651Z,13.93
2018-09-09T06:36:13.813Z,13.95
2018-09-09T06:38:41.994Z,13.80
2018-09-09T06:41:10.237Z,13.98
2018-09-09T06:43:38.488Z,13.87
2018-09-09T06:46:06.696Z,14.15
2018-09-09T06:48:34.990Z,14.23
2018-09-09T06:51:03.441Z,14.35
2018-09-09T06:53:32.365Z,14.44
2018-09-09T06:56:00.551Z,14.48
2018-09-09T06:58:28.717Z,14.36
2018-09-09T07:00:56.938Z,14.38
2018-09-09T07:03:25.110Z,14.33
2018-09-09T07:05:53.401Z,14.29
2018-09-09T07:08:21.578Z,14.43
2018-09-09T07:10:49.893Z,14.39
2018-09-09T07:13:18.066Z,14.34
2018-09-09T07:15:46.269Z,14.28
2018-09-09T07:18:14.556Z,14.53
2018-09-09T07:20:42.837Z,14.71
2018-09-09T07:23:11.008Z,14.76
2018-09-09T07:25:39.303Z,14.93
2018-09-09T07:28:07.513Z,14.98
2018-09-09T07:30:35.714Z,14.97
2018-09-09T07:33:03.893Z,15.12
2018-09-09T07:35:32.073Z,15.20
2018-09-09T07:38:00.341Z,15.34
2018-09-09T07:40:28.742Z,15.45
2018-09-09T07:42:57.001Z,15.58
2018-09-09T07:45:25.197Z,15.67
2018-09-09T07:47:53.402Z,15.60
2018-09-09T07:50:21.669Z,15.70
2018-09-09T07:52:49.849Z,15.69
2018-09-09T07:55:18.031Z,15.98
2018-09-09T07:57:46.233Z,16.03
2018-09-09T08:00:14.419Z,16.23
2018-09-09T08:02:42.660Z,16.41
2018-09-09T08:05:10.857Z,16.48
2018-09-09T08:07:39.046Z,16.54
2018-09-09T08:10:07.311Z,16.64
2018-09-09T08:12:35.505Z,16.53
2018-09-09T08:15:03.789Z,16.59
2018-09-09T08:17:32.031Z,16.63
2018-09-09T08:20:00.328Z,16.67
2018-09-09T08:22:28.538Z,16.83
2018-09-09T08:24:56.789Z,16.67
2018-09-09T08:27:24.996Z,16.86
2018-09-09T08:29:53.173Z,17.03
2018-09-09T08:32:21.461Z,17.03
2018-09-09T08:34:49.725Z,17.10
2018-09-09T08:37:17.981Z,17.36
2018-09-09T08:39:46.225Z,17.36
2018-09-09T08:42:14.513Z,17.46
2018-09-09T08:44:42.686Z,17.70
2018-09-09T08:47:10.892Z,17.69
2018-09-09T08:49:39.213Z,17.70
2018-09-09T08:52:07.489Z,17.73
2018-09-09T08:54:35.669Z,18.11
2018-09-09T08:57:04.011Z,18.14
2018-09-09T09:00:35.385Z,18.40
2018-09-09T09:03:03.613Z,18.31
2018-09-09T09:05:31.881Z,18.47
2018-09-09T09:08:00.190Z,18.65
2018-09-09T09:10:28.361Z,18.83
2018-09-09T09:12:56.558Z,18.96
2018-09-09T09:15:25.162Z,19.11
2018-09-09T09:17:53.582Z,19.37
2018-09-09T09:20:21.809Z,19.45
2018-09-09T09:22:50.018Z,19.68
2018-09-09T09:25:18.289Z,19.85
2018-09-09T09:27:46.573Z,20.11
2018-09-09T09:30:15.069Z,20.23
2018-09-09T09:32:47.254Z,20.35
2018-09-09T09:35:15.453Z,20.64
2018-09-09T09:37:44.029Z,20.67
2018-09-09T09:40:12.263Z,20.70
2018-09-09T09:42:40.529Z,20.89
2018-09-09T09:45:08.810Z,21.14
2018-09-09T09:47:37.097Z,21.34
2018-09-09T09:50:05.397Z,21.34
2018-09-09T09:52:33.677Z,21.51
2018-09-09T09:55:01.912Z,21.76
2018-09-09T09:57:30.052Z,21.73
2018-09-09T09:59:58.354Z,21.71
2018-09-09T10:02:26.563Z,22.34
2018-09-09T10:04:54.801Z,22.43
2018-09-09T10:07:22.998Z,21.80
2018-09-09T10:09:51.185Z,21.77
2018-09-09T10:12:19.370Z,21.88
2018-09-09T10:14:47.566Z,21.87
2018-09-09T10:17:15.890Z,22.52
2018-09-09T10:19:44.138Z,22.75
2018-09-09T10:22:13.485Z,22.96
2018-09-09T10:24:41.685Z,22.84
2018-09-09T10:27:09.865Z,23.27
2018-09-09T10:29:38.141Z,23.49
2018-09-09T10:32:06.474Z,23.20
2018-09-09T10:34:34.685Z,22.79
2018-09-09T10:37:02.899Z,22.66
2018-09-09T10:39:31.163Z,22.48
2018-09-09T10:41:59.361Z,22.61
2018-09-09T10:44:27.649Z,22.66
2018-09-09T10:46:55.835Z,23.00
2018-09-09T10:49:24.177Z,22.99
2018-09-09T10:51:52.533Z,23.27
2018-09-09T10:54:20.814Z,23.26
2018-09-09T10:56:49.093Z,23.19
2018-09-09T10:59:17.482Z,23.23
2018-09-09T11:01:45.775Z,23.29
2018-09-09T11:04:14.054Z,23.49
2018-09-09T11:06:42.258Z,23.04
2018-09-09T11:09:10.821Z,22.75
2018-09-09T11:11:39.034Z,22.74
2018-09-09T11:14:07.351Z,23.04
2018-09-09T11:16:35.683Z,22.96
2018-09-09T11:19:03.905Z,23.11
2018-09-09T11:21:32.691Z,23.06
2018-09-09T11:24:08.760Z,23.01
2018-09-09T11:26:37.571Z,22.78
2018-09-09T11:29:06.774Z,23.06
2018-09-09T11:31:35.182Z,23.07
2018-09-09T11:36:38.136Z,22.83
2018-09-09T11:39:08.114Z,22.75
2018-09-09T11:41:36.463Z,22.87
2018-09-09T11:44:04.777Z,23.01
2018-09-09T11:46:33.371Z,22.83
2018-09-09T11:49:02.017Z,23.07
2018-09-09T11:51:30.233Z,23.25
2018-09-09T11:53:58.555Z,23.24
2018-09-09T11:56:27.430Z,23.33
2018-09-09T11:58:56.031Z,23.27
2018-09-09T12:01:24.324Z,23.21
2018-09-09T12:03:52.537Z,22.96
2018-09-09T12:06:20.781Z,22.92
2018-09-09T12:08:51.173Z,23.27
2018-09-09T12:11:19.438Z,23.41
2018-09-09T12:13:48.435Z,23.53
2018-09-09T12:16:16.717Z,23.48
2018-09-09T12:18:45.069Z,23.59
2018-09-09T12:21:13.281Z,23.59
2018-09-09T12:23:41.616Z,23.63
2018-09-09T12:26:09.810Z,23.51
2018-09-09T12:28:38.106Z,23.49
2018-09-09T12:31:06.487Z,23.41
2018-09-09T12:33:34.822Z,23.41
2018-09-09T12:36:03.087Z,23.34
2018-09-09T12:38:31.337Z,23.20
2018-09-09T12:40:59.630Z,23.40
2018-09-09T12:43:33.291Z,23.26
2018-09-09T12:46:06.673Z,23.26
2018-09-09T12:48:40.274Z,23.27
2018-09-09T12:51:08.637Z,23.24
2018-09-09T12:53:36.942Z,23.45
2018-09-09T12:56:05.373Z,23.35
2018-09-09T12:58:33.659Z,23.47
2018-09-09T13:01:01.886Z,23.48
2018-09-09T13:03:30.207Z,23.73
2018-09-09T13:05:58.479Z,23.60
2018-09-09T13:08:26.749Z,23.66
2018-09-09T13:10:55.022Z,23.80
2018-09-09T13:13:23.214Z,23.66
2018-09-09T13:15:51.401Z,23.56
2018-09-09T13:18:20.106Z,23.58
2018-09-09T13:20:48.277Z,23.57
2018-09-09T13:23:16.454Z,23.52
2018-09-09T13:25:44.679Z,23.55
2018-09-09T13:28:13.030Z,23.68
2018-09-09T13:30:41.227Z,23.94
2018-09-09T13:33:09.569Z,23.84
2018-09-09T13:35:37.742Z,23.97
2018-09-09T13:38:06.062Z,24.03
2018-09-09T13:40:34.318Z,23.86
2018-09-09T13:43:02.634Z,23.87
2018-09-09T13:45:30.843Z,23.96
2018-09-09T13:47:59.136Z,24.19
2018-09-09T13:50:27.342Z,24.01
2018-09-09T13:52:55.599Z,24.09
2018-09-09T13:55:23.774Z,24.01
2018-09-09T13:57:52.018Z,23.95
2018-09-09T14:00:20.199Z,24.13
2018-09-09T14:02:48.398Z,24.19
2018-09-09T14:05:16.585Z,24.19
2018-09-09T14:07:45.738Z,24.24
2018-09-09T14:10:14.032Z,24.44
2018-09-09T14:12:42.209Z,24.30
2018-09-09T14:15:10.511Z,24.29
2018-09-09T14:17:38.693Z,24.28
2018-09-09T14:20:06.906Z,24.09
2018-09-09T14:22:35.287Z,24.35
2018-09-09T14:25:03.453Z,24.13
2018-09-09T14:27:31.741Z,24.19
2018-09-09T14:30:00.030Z,24.20
2018-09-09T14:32:28.225Z,24.14
2018-09-09T14:34:56.489Z,24.29
2018-09-09T14:37:24.693Z,24.39
2018-09-09T14:39:58.715Z,24.33
2018-09-09T14:42:26.902Z,24.49
2018-09-09T14:44:55.214Z,24.50
2018-09-09T14:47:23.581Z,24.44
2018-09-09T14:49:51.750Z,24.27
2018-09-09T14:52:19.953Z,24.26
2018-09-09T14:54:48.154Z,24.61
2018-09-09T14:57:16.336Z,24.57
2018-09-09T14:59:44.785Z,24.48
2018-09-09T15:02:13.010Z,24.43
2018-09-09T15:04:41.316Z,24.43
2018-09-09T15:07:09.582Z,24.34
2018-09-09T15:09:37.969Z,24.50
2018-09-09T15:12:06.290Z,24.50
2018-09-09T15:14:34.631Z,24.43
2018-09-09T15:17:03.118Z,24.40
2018-09-09T15:19:31.378Z,24.78
2018-09-09T15:21:59.721Z,24.84
2018-09-09T15:24:27.905Z,24.70
2018-09-09T15:26:56.119Z,24.88
2018-09-09T15:29:24.374Z,24.77
2018-09-09T15:31:52.549Z,24.68
2018-09-09T15:34:20.789Z,24.96
2018-09-09T15:36:48.898Z,24.89
2018-09-09T15:39:17.126Z,24.58
2018-09-09T15:41:45.420Z,24.58
2018-09-09T15:44:13.591Z,24.75
2018-09-09T15:46:41.778Z,24.78
2018-09-09T15:49:09.955Z,24.83
2018-09-09T15:51:38.186Z,24.94
2018-09-09T15:54:06.454Z,24.98
2018-09-09T15:56:34.649Z,24.62
2018-09-09T15:59:02.926Z,24.65
2018-09-09T16:01:31.121Z,24.44
2018-09-09T16:03:59.401Z,24.14
2018-09-09T16:06:27.594Z,24.09
2018-09-09T16:08:55.784Z,23.90
2018-09-09T16:11:23.969Z,23.88
2018-09-09T16:13:52.176Z,23.72
2018-09-09T16:16:20.346Z,23.73
2018-09-09T16:18:48.607Z,23.65
2018-09-09T16:21:16.854Z,23.74
2018-09-09T16:23:45.110Z,23.79
2018-09-09T16:26:13.416Z,23.57
2018-09-09T16:28:41.689Z,23.58
2018-09-09T16:31:10.061Z,23.73
2018-09-09T16:33:38.301Z,23.39
2018-09-09T16:36:06.565Z,23.26
2018-09-09T16:38:34.837Z,23.03
2018-09-09T16:41:03.029Z,22.97
2018-09-09T16:43:31.302Z,23.03
2018-09-09T16:45:59.461Z,22.83
2018-09-09T16:48:44.315Z,22.99
2018-09-09T16:51:12.562Z,23.04
2018-09-09T16:53:40.761Z,22.84
2018-09-09T16:56:09.053Z,22.87
2018-09-09T16:58:37.345Z,22.99
2018-09-09T17:01:05.667Z,23.05
2018-09-09T17:03:33.914Z,22.80
2018-09-09T17:06:02.193Z,22.82
2018-09-09T17:08:30.414Z,22.58
2018-09-09T17:10:58.662Z,22.46
2018-09-09T17:13:26.878Z,22.40
2018-09-09T17:15:55.182Z,22.25
2018-09-09T17:18:23.566Z,22.07
2018-09-09T17:20:51.859Z,22.23
2018-09-09T17:23:20.122Z,22.00
2018-09-09T17:25:48.406Z,21.82
2018-09-09T17:28:16.590Z,21.60
2018-09-09T17:30:49.163Z,21.43
2018-09-09T17:33:17.373Z,21.26
2018-09-09T17:35:45.653Z,21.31
2018-09-09T17:38:13.834Z,21.14
2018-09-09T17:40:42.025Z,21.04
2018-09-09T17:43:10.213Z,20.96
2018-09-09T17:45:38.513Z,20.84
2018-09-09T17:48:06.798Z,20.73
2018-09-09T17:50:35.071Z,20.67
2018-09-09T17:53:03.401Z,20.56
2018-09-09T17:55:31.738Z,20.40
2018-09-09T17:57:59.949Z,20.35
2018-09-09T18:00:28.125Z,20.31
2018-09-09T18:02:56.322Z,20.30
2018-09-09T18:05:24.485Z,20.26
2018-09-09T18:07:52.698Z,20.19
2018-09-09T18:10:20.869Z,20.14
2018-09-09T18:12:49.041Z,20.10
2018-09-09T18:15:17.210Z,20.10
2018-09-09T18:17:45.462Z,20.14
2018-09-09T18:20:13.800Z,20.12
2018-09-09T18:22:41.975Z,20.20
2018-09-09T18:25:10.113Z,20.38
2018-09-09T18:27:38.451Z,20.34
2018-09-09T18:30:06.707Z,20.21
2018-09-09T18:32:34.894Z,20.10
2018-09-09T18:35:03.107Z,20.00
2018-09-09T18:37:31.242Z,20.03
2018-09-09T18:39:59.399Z,20.01
2018-09-09T18:42:27.577Z,20.05
2018-09-09T18:44:55.768Z,19.83
2018-09-09T18:47:23.918Z,19.58
2018-09-09T18:49:52.193Z,19.43
2018-09-09T18:52:20.457Z,19.41
2018-09-09T18:54:48.625Z,19.53
2018-09-09T18:57:16.840Z,19.46
2018-09-09T18:59:45.090Z,19.35
2018-09-09T19:02:13.270Z,19.15
2018-09-09T19:04:41.446Z,19.19
2018-09-09T19:07:09.625Z,19.23
2018-09-09T19:09:37.886Z,19.15
2018-09-09T19:12:06.547Z,19.26
2018-09-09T19:14:34.913Z,19.24
2018-09-09T19:17:03.168Z,19.16
2018-09-09T19:19:31.441Z,19.15
2018-09-09T19:21:59.633Z,18.95
2018-09-09T19:24:27.806Z,18.87
2018-09-09T19:26:55.998Z,18.78
2018-09-09T19:29:24.283Z,18.61
2018-09-09T19:31:52.534Z,18.57
2018-09-09T19:34:20.833Z,18.69
2018-09-09T19:36:49.001Z,18.80
2018-09-09T19:39:17.254Z,18.55
2018-09-09T19:41:45.569Z,18.36
2018-09-09T19:44:13.910Z,18.35
2018-09-09T19:46:42.047Z,18.25
2018-09-09T19:49:10.294Z,18.02
2018-09-09T19:51:38.509Z,18.03
2018-09-09T19:54:06.776Z,17.94
2018-09-09T19:56:34.961Z,17.83
2018-09-09T19:59:03.135Z,17.77
2018-09-09T20:01:31.340Z,17.91
2018-09-09T20:03:59.615Z,18.02
2018-09-09T20:06:27.807Z,18.01
2018-09-09T20:08:56.405Z,17.89
2018-09-09T20:11:24.586Z,17.82
2018-09-09T20:13:52.757Z,17.61
2018-09-09T20:16:21.055Z,17.54
2018-09-09T20:18:49.341Z,17.78
2018-09-09T20:21:17.533Z,17.79
2018-09-09T20:23:46.121Z,17.44
2018-09-09T20:26:14.345Z,17.70
2018-09-09T20:28:42.709Z,17.45
2018-09-09T20:31:10.909Z,17.24
2018-09-09T20:33:39.175Z,17.20
2018-09-09T20:36:07.353Z,17.30
2018-09-09T20:38:35.603Z,17.23
2018-09-09T20:41:03.867Z,17.39
2018-09-09T20:43:32.129Z,17.42
2018-09-09T20:46:00.341Z,17.38
2018-09-09T20:48:28.616Z,17.27
2018-09-09T20:50:56.899Z,17.19
2018-09-09T20:53:25.206Z,17.14
2018-09-09T20:55:53.485Z,17.36
2018-09-09T20:58:21.711Z,17.41
2018-09-09T21:00:49.917Z,17.38
2018-09-09T21:03:18.130Z,17.30
2018-09-09T21:05:46.306Z,17.11
2018-09-09T21:08:16.698Z,16.94
2018-09-09T21:10:44.925Z,17.13
2018-09-09T21:13:13.158Z,17.19
2018-09-09T21:15:41.389Z,17.18
2018-09-09T21:18:09.585Z,17.18
2018-09-09T21:20:38.401Z,17.27
2018-09-09T21:23:07.376Z,17.23
2018-09-09T21:25:35.797Z,17.02
2018-09-09T21:28:04.743Z,16.72
2018-09-09T21:30:33.316Z,16.64
2018-09-09T21:33:01.763Z,16.48
2018-09-09T21:35:30.090Z,16.42
2018-09-09T21:37:58.741Z,16.26
2018-09-09T21:40:26.999Z,16.25
2018-09-09T21:42:55.225Z,16.08
2018-09-09T21:45:23.495Z,16.14
2018-09-09T21:47:51.715Z,16.09
2018-09-09T21:50:19.885Z,16.03
2018-09-09T21:52:48.081Z,16.01
2018-09-09T21:55:16.275Z,15.89
2018-09-09T21:57:44.449Z,15.91
2018-09-09T22:03:52.933Z,15.81
2018-09-09T22:06:21.209Z,15.77
2018-09-09T22:08:49.393Z,15.85
2018-09-09T22:11:17.597Z,15.88
2018-09-09T22:13:45.902Z,15.83
2018-09-09T22:16:14.166Z,15.77
2018-09-09T22:18:42.449Z,15.77
2018-09-09T22:21:10.741Z,15.66
2018-09-09T22:23:39.054Z,15.78
2018-09-09T22:26:07.229Z,15.73
2018-09-09T22:28:35.565Z,15.67
2018-09-09T22:31:03.806Z,15.57
2018-09-09T22:33:32.073Z,15.70
2018-09-09T22:36:00.374Z,15.67
2018-09-09T22:38:28.588Z,15.60
2018-09-09T22:40:56.851Z,15.55
2018-09-09T22:43:25.257Z,15.50
2018-09-09T22:45:59.150Z,15.56
2018-09-09T22:48:28.273Z,15.64
2018-09-09T22:50:56.743Z,15.63
2018-09-09T22:53:24.946Z,15.60
2018-09-09T22:55:53.389Z,15.55
2018-09-09T22:58:21.645Z,15.44
2018-09-09T23:00:49.954Z,15.52
2018-09-09T23:03:23.453Z,15.48
2018-09-09T23:05:59.598Z,15.34
2018-09-09T23:08:33.513Z,15.32
2018-09-09T23:11:01.726Z,15.29
2018-09-09T23:13:30.006Z,15.29
2018-09-09T23:15:58.305Z,15.18
2018-09-09T23:18:26.581Z,15.18
2018-09-09T23:20:54.889Z,15.07
2018-09-09T23:23:23.375Z,15.15
2018-09-09T23:25:51.649Z,15.09
2018-09-09T23:28:19.941Z,14.99
2018-09-09T23:30:48.233Z,14.99
2018-09-09T23:33:16.518Z,15.01
2018-09-09T23:35:44.862Z,15.02
2018-09-09T23:38:13.101Z,14.90
2018-09-09T23:40:41.445Z,14.89
2018-09-09T23:43:09.686Z,14.91
2018-09-09T23:45:38.042Z,14.91
2018-09-09T23:48:06.263Z,14.90
2018-09-09T23:50:34.625Z,14.82
2018-09-09T23:53:02.857Z,14.76
2018-09-09T23:55:31.169Z,14.84
2018-09-09T23:57:59.695Z,14.85
